Frey Ranch - Fallon, Nevada Weather observations

Data are for observation ending at time listed.
 Day   Time    Ave.   Ave.  Ave.  Vector   Max.   Stn.    Total    Solar   Ave.  
  of    of     Air    Rel.  Wind   Wind    Wind   Baro.  Precip.   Rad.    Soil  
Year   Day     Temp.  Hum.  Speed  Dir.    Gust   Pres.                    Temp. 
2015   (PST)    F      %     mph   deg.    mph     mb.     in.     W/m2     F   
------------------------------------------------------------------------------
  59   21:00   34.6    89    0.8   310      1.8   999.0    0.00       0    46.0
  59   21:10   34.6    89    0.0     0      0.0   999.0    0.00       0    46.0
  59   21:20   34.6    89    1.0   334      2.5   999.0    0.00       0    46.0
  59   21:30   34.7    90    1.8   338      3.7   999.0    0.00       0    46.0
  59   21:40   34.8    90    1.9    92      4.3   999.0    0.00       0    46.0
  59   21:50   34.7    90    0.6   357      2.2   999.0    0.02       0    46.0
  59   22:00   34.2    90    1.8   295      4.3   999.0    0.01       0    46.0
  59   22:10   33.7    90    3.6   266      5.1   999.0    0.01       0    46.0
  59   22:20   33.9    90    3.1   277      4.6   999.0    0.00       0    46.0
  59   22:30   34.1    90    3.9   253      6.0   999.0    0.00       0    45.9
  59   22:40   34.0    90    4.8   249      6.2   999.0    0.00       0    45.9
  59   22:50   33.8    90    3.6   266      5.3   999.0    0.00       0    45.9
  59   23:00   33.6    90    2.8   263      4.3   999.0    0.00       0    45.9
  59   23:10   33.5    91    2.7   233      3.8   999.0    0.00       0    45.8
  59   23:20   33.4    91    3.2   236      4.3   999.0    0.00       0    45.8
  59   23:30   33.4    91    4.0   266      6.7   999.0    0.00       0    45.8
  59   23:40   33.5    91    3.3   222      6.0   999.0    0.00       0    45.8
  59   23:50   33.5    91    3.7   198      5.2   999.0    0.00       0    45.7
  60    0:00   33.6    91    2.7   210      4.7   999.0    0.00       0    45.7
  60    0:10   33.8    91    1.7   253      2.9   999.0    0.00       0    45.7
  60    0:20   34.0    91    0.3   307      1.7   999.0    0.00       0    45.6
  60    0:30   34.3    91    0.2     9      1.7   999.0    0.00       0    45.6
  60    0:40   34.7    91    0.6   346      1.8   999.0    0.00       0    45.5
  60    0:50   34.9    91    0.7     2      3.1   999.0    0.00       0    45.5
  60    1:00   35.0    91    0.4   353      1.6   999.0    0.00       0    45.4
  60    1:10   35.0    90    0.6    11      2.3   999.0    0.00       0    45.4
  60    1:20   35.1    90    1.3   356      2.6   999.0    0.00       0    45.4
  60    1:30   35.3    90    1.0     8      3.1   999.0    0.00       0    45.3
  60    1:40   35.5    90    0.3    10      2.0   999.0    0.00       0    45.3
  60    1:50   35.5    89    0.5   344      2.0   999.0    0.00       0    45.2
  60    2:00   35.5    89    0.3   329      1.7   999.0    0.00       0    45.2
  60    2:10   35.5    89    0.3   321      1.9   999.0    0.00       0    45.1
  60    2:20   35.6    89    0.1   321      1.3   999.0    0.00       0    45.1
  60    2:30   35.5    88    0.1   321      1.3   999.0    0.00       0    45.0
  60    2:40   35.5    89    0.0     0      0.0   999.0    0.00       0    45.0
  60    2:50   35.5    88    1.3   332      2.5   999.0    0.00       0    44.9
  60    3:00   35.6    88    1.7   339      3.0   999.0    0.00       0    44.9
  60    3:10   35.7    88    1.0   335      2.7   999.0    0.00       0    44.9
  60    3:20   35.7    87    0.5   329      1.7   999.0    0.00       0    44.8
  60    3:30   35.6    87    1.3   324      4.0   999.0    0.00       0    44.8
  60    3:40   35.4    87    1.3   339      2.8   999.0    0.00       0    44.7
  60    3:50   35.3    86    1.5   345      3.4   999.0    0.00       0    44.7
  60    4:00   35.1    85    1.0   351      1.9   999.0    0.00       0    44.7
  60    4:10   34.9    85    0.4   350      1.1   999.0    0.00       0    44.6
  60    4:20   34.6    85    0.2   350      1.6   999.0    0.00       0    44.6
  60    4:30   34.3    86    0.0   350      0.5   999.0    0.00       0    44.6
  60    4:40   34.2    86    1.5   312      2.6   999.0    0.00       0    44.5
  60    4:50   34.1    86    1.9   305      3.1   999.0    0.00       0    44.5
  60    5:00   34.0    86    2.7   311      4.9   999.0    0.00       0    44.5
  60    5:10   33.9    86    3.0   307      4.5   999.0    0.00       0    44.5
  60    5:20   33.9    86    2.5   321      4.5   999.0    0.00       0    44.5
  60    5:30   33.8    86    2.0   316      4.0   999.0    0.00       0    44.4
  60    5:40   33.8    85    1.8   306      3.4   999.0    0.00       0    44.4
  60    5:50   33.7    85    0.4   306      1.4   999.0    0.00       0    44.4
  60    6:00   33.6    85    1.8   296      3.4   999.0    0.00       0    44.4
  60    6:10   33.4    86    2.2   291      3.0   999.0    0.00       1    44.4
  60    6:20   33.2    86    2.0   308      2.9   999.0    0.00       2    44.3
  60    6:30   33.1    86    1.9   304      3.5   999.0    0.00       7    44.3
  60    6:40   33.1    86    2.7   309      4.0   999.0    0.00      19    44.3
  60    6:50   33.2    86    2.6   334      5.2   999.0    0.00      36    44.3
  60    7:00   33.8    82    3.0   342      5.1   999.0    0.00      93    44.3
  60    7:10   34.7    78    4.0   340      6.3   999.0    0.00     135    44.3
  60    7:20   34.8    74    4.6   344      7.0   999.0    0.00     196    44.3
  60    7:30   35.5    72    4.4   344      7.8   999.0    0.00     215    44.2
  60    7:40   36.0    70    3.1   349      6.0   999.0    0.00     228    44.2
  60    7:50   36.2    67    3.9   358      8.2   999.0    0.00     260    44.2
  60    8:00   36.5    68    4.1     0      8.5   999.0    0.00     292    44.2
  60    8:10   36.8    67    4.2   359      7.2   999.0    0.00     323    44.2
  60    8:20   37.2    66    4.5   354      7.1   999.0    0.00     355    44.2
  60    8:30   37.8    65    4.0   358      7.8   999.0    0.00     390    44.2
  60    8:40   38.4    64    4.7     3     10.8   999.0    0.00     423    44.2
  60    8:50   38.5    62    5.7   353     11.0   999.0    0.00     456    44.2
  60    9:00   38.9    62    4.1   357      9.1   999.0    0.00     486    44.2
  60    9:10   39.5    61    4.3   352      9.6   999.0    0.00     515    44.2
  60    9:20   39.8    60    4.2   359      8.3   999.0    0.00     542    44.2
  60    9:30   40.1    59    5.1   351      8.6   999.0    0.00     569    44.2
  60    9:40   40.6    60    4.7   350      8.4   999.0    0.00     589    44.2
  60    9:50   41.2    59    4.5   346      9.8   999.0    0.00     611    44.2
  60   10:00   41.6    58    4.2   356      9.0   999.0    0.00     635    44.2
  60   10:10   42.0    57    3.9     0     11.5   999.0    0.00     656    44.2
  60   10:20   42.7    56    3.6   358      7.4   999.0    0.00     685    44.2
  60   10:30   42.7    55    3.9   355      8.4   999.0    0.00     639    44.3
  60   10:40   42.9    56    3.2   358      6.3   999.0    0.00     581    44.3
  60   10:50   43.5    55    3.1    44      8.5   999.0    0.00     808    44.3
  60   11:00   44.5    54    2.6   359      6.9   999.0    0.00     614    44.3
  60   11:10   43.4    57    5.4    81      9.9   999.0    0.00     541    44.4
  60   11:20   43.8    55    4.9    79      9.3   999.0    0.00     981    44.4
  60   11:30   45.3    54    3.8    63      8.5   999.0    0.00     613    44.4
  60   11:40   44.2    53    2.9    75      6.8   999.0    0.00     454    44.4
  60   11:50   45.7    54    2.9    46      8.7   999.0    0.00     925    44.4
  60   12:00   45.9    52    3.3    81      7.9   999.0    0.00     774    44.5
  60   12:10   46.8    52    3.6   341      7.2   999.0    0.00     793    44.5
  60   12:20   45.4    53    3.1   351      6.9   999.0    0.00     271    44.5
  60   12:30   45.2    52    3.2   319      7.0   999.0    0.00     445    44.5
  60   12:40   47.1    50    2.0    30      5.9   999.0    0.00     929    44.5
  60   12:50   47.6    48    2.9   319      6.4   999.0    0.00     838    44.5
  60   13:00   48.2    48    2.1   354      5.7   999.0    0.00     870    44.5
  60   13:10   48.5    46    2.9    49      7.1   999.0    0.00     947    44.5
  60   13:20   48.0    47    3.4   342      7.5   999.0    0.00     412    44.5
  60   13:30   46.4    48    3.6   335      6.2   999.0    0.00     273    44.4
  60   13:40   47.6    47    1.8    31      5.0   999.0    0.00     712    44.4
  60   13:50   50.0    44    3.0   350      7.8   999.0    0.00     486    44.3
  60   14:00   47.3    48    3.3   336      8.8   999.0    0.00     356    44.3
  60   14:10   48.4    45    3.7   329      7.9   999.0    0.00     724    44.2
  60   14:20   49.0    46    2.9    56      6.4   999.0    0.00     652    44.2
  60   14:30   49.0    45    3.9    82      8.4   999.0    0.00     446    44.1
  60   14:40   48.4    44    3.0    81      6.3   999.0    0.00     443    44.1
  60   14:50   50.0    42    3.5   352      7.2   999.0    0.00     452    44.1
  60   15:00   48.6    44    3.0   351      5.7   999.0    0.00     200    44.1
  60   15:10   47.7    45    3.7   315      6.2   999.0    0.00     187    44.1
  60   15:20   48.0    46    1.8     5      4.7   999.0    0.00     260    44.1
  60   15:30   49.4    41    2.3   327      4.6   999.0    0.00     379    44.1
  60   15:40   49.2    41    3.6   308      5.7   999.0    0.00     471    44.2
  60   15:50   50.0    40    2.8   296      6.7   999.0    0.00     463    44.2
  60   16:00   51.3    40    2.5   345      5.8   999.0    0.00     377    44.3
  60   16:10   50.1    42    3.9   344      7.9   999.0    0.00     304    44.3
  60   16:20   49.4    42    3.7   341      6.1   999.0    0.00     269    44.4
  60   16:30   49.6    42    2.7   335      4.7   999.0    0.00     220    44.5
  60   16:40   49.5    41    2.5   330      5.4   999.0    0.00     184    44.5
  60   16:50   49.4    42    3.1   326      5.7   999.0    0.00     153    44.6
  60   17:00   48.8    43    3.1   310      4.9   999.0    0.00     121    44.7
  60   17:10   48.5    42    2.8   315      3.8   999.0    0.00      83    44.7
  60   17:20   47.8    46    3.1   322      5.2   999.0    0.00      46    44.8
  60   17:30   46.6    48    2.6   346      3.4   999.0    0.00      20    44.9
  60   17:40   45.3    52    2.0   347      3.0   999.0    0.00       5    44.9
  60   17:50   44.5    54    0.7   353      1.4   999.0    0.00       2    45.0
  60   18:00   43.2    59    0.0     0      0.0   999.0    0.00       0    45.1
  60   18:10   42.3    63    1.6   282      3.7   999.0    0.00       0    45.2
  60   18:20   42.1    63    1.4   283      1.9   999.0    0.00       0    45.2
  60   18:30   41.4    64    2.1   283      2.9   999.0    0.00       0    45.3
  60   18:40   40.5    66    2.2   300      3.3   999.0    0.00       0    45.4
  60   18:50   40.8    63    2.4   320      3.1   999.0    0.00       0    45.4
  60   19:00   40.3    64    2.1   311      3.1   999.0    0.00       0    45.5
  60   19:10   39.3    66    3.0   289      4.1   999.0    0.00       0    45.6
  60   19:20   38.2    69    3.3   293      4.8   999.0    0.00       0    45.6
  60   19:30   38.7    69    3.2   313      4.5   999.0    0.00       0    45.7
  60   19:40   38.3    70    2.2   310      3.3   999.0    0.00       0    45.7
  60   19:50   37.9    71    2.0   303      2.8   999.0    0.00       0    45.8
  60   20:00   37.1    72    0.5   246      2.7   999.0    0.00       0    45.8
  60   20:10   36.3    76    0.7   261      2.0   999.0    0.00       0    45.9
  60   20:20   35.9    80    2.5   296      3.6   999.0    0.00       0    46.0
  60   20:30   36.1    80    1.8   292      3.1   999.0    0.00       0    46.0
  60   20:40   35.7    80    1.1   289      2.3   999.0    0.00       0    46.0
  60   20:50   34.8    82    3.4   219      4.9   999.0    0.00       0    46.1

Return to Frey Ranch - Fallon, Nevada graphs page.


Western Regional Climate Center,wrcc@dri.edu